Terminal Aerodrome Forecast
Issued by NWS Milwaukee/Sullivan, WI

Home | Current Version | Previous Version | Text Only | Print | Product List | Glossary On
Versions: 1 2 3 4 5 6 7 8 9 10 11 12 13 14 15 16 17 18 19 20 21 22 23 24 25 26 27 28 29
000
FTUS43 KMKX 181127
TAFMKE
TAF
KMKE 181127Z 1812/1918 25003KT 1 1/2SM -DZ BR OVC003
     FM181500 25007KT 3SM BR OVC008
     FM181700 25009KT P6SM BKN008
     FM182000 24010G18KT P6SM BKN040
     FM190200 22012G20KT P6SM BKN250 WS020/25040KT
     FM191500 28012KT P6SM FEW150=

USA.gov is the U.S. government's official web portal to all federal, state and local government web resources and services.